sensor_id;sensor_type;location;lat;lon;timestamp;temperature;humidity
27797;DHT22;15177;50.844;4.412;2023-10-08T00:01:28;18.20;99.90
27797;DHT22;15177;50.844;4.412;2023-10-08T00:03:54;18.20;99.90
27797;DHT22;15177;50.844;4.412;2023-10-08T00:06:24;18.10;99.90
27797;DHT22;15177;50.844;4.412;2023-10-08T00:08:50;18.10;99.90
27797;DHT22;15177;50.844;4.412;2023-10-08T00:11:17;18.10;99.90
27797;DHT22;15177;50.844;4.412;2023-10-08T00:13:43;18.10;99.90
27797;DHT22;15177;50.844;4.412;2023-10-08T00:16:12;18.10;99.90
27797;DHT22;15177;50.844;4.412;2023-10-08T00:18:41;18.10;99.90
27797;DHT22;15177;50.844;4.412;2023-10-08T00:21:15;18.10;99.90
27797;DHT22;15177;50.844;4.412;2023-10-08T00:23:40;18.00;99.90
27797;DHT22;15177;50.844;4.412;2023-10-08T00:26:20;18.00;99.90
27797;DHT22;15177;50.844;4.412;2023-10-08T00:28:56;17.90;99.90
27797;DHT22;15177;50.844;4.412;2023-10-08T00:31:25;17.90;99.90
27797;DHT22;15177;50.844;4.412;2023-10-08T00:33:56;17.90;99.90
27797;DHT22;15177;50.844;4.412;2023-10-08T00:36:22;17.90;99.90
27797;DHT22;15177;50.844;4.412;2023-10-08T00:38:50;17.90;99.90
27797;DHT22;15177;50.844;4.412;2023-10-08T00:41:23;17.90;99.90
27797;DHT22;15177;50.844;4.412;2023-10-08T00:43:54;17.90;99.90
27797;DHT22;15177;50.844;4.412;2023-10-08T00:46:22;17.80;99.90
27797;DHT22;15177;50.844;4.412;2023-10-08T00:48:51;17.80;99.90
27797;DHT22;15177;50.844;4.412;2023-10-08T00:51:21;17.80;99.90
27797;DHT22;15177;50.844;4.412;2023-10-08T00:53:49;17.70;99.90
27797;DHT22;15177;50.844;4.412;2023-10-08T00:56:18;17.80;99.90
27797;DHT22;15177;50.844;4.412;2023-10-08T00:58:45;17.90;99.90
27797;DHT22;15177;50.844;4.412;2023-10-08T01:01:18;17.80;99.90
27797;DHT22;15177;50.844;4.412;2023-10-08T01:03:47;17.80;99.90
27797;DHT22;15177;50.844;4.412;2023-10-08T01:06:18;17.90;99.90
27797;DHT22;15177;50.844;4.412;2023-10-08T01:08:46;17.80;99.90
27797;DHT22;15177;50.844;4.412;2023-10-08T01:11:21;17.90;99.90
27797;DHT22;15177;50.844;4.412;2023-10-08T01:14:08;17.70;99.90
27797;DHT22;15177;50.844;4.412;2023-10-08T01:16:33;17.70;99.90
27797;DHT22;15177;50.844;4.412;2023-10-08T01:19:00;17.60;99.90
27797;DHT22;15177;50.844;4.412;2023-10-08T01:21:29;17.70;99.90
27797;DHT22;15177;50.844;4.412;2023-10-08T01:24:05;17.70;99.90
27797;DHT22;15177;50.844;4.412;2023-10-08T01:26:33;17.70;99.90
27797;DHT22;15177;50.844;4.412;2023-10-08T01:28:59;17.80;99.90
27797;DHT22;15177;50.844;4.412;2023-10-08T01:31:32;17.80;99.90
27797;DHT22;15177;50.844;4.412;2023-10-08T01:33:58;17.60;99.90
27797;DHT22;15177;50.844;4.412;2023-10-08T01:36:27;17.60;99.90
27797;DHT22;15177;50.844;4.412;2023-10-08T01:38:53;17.60;99.90
27797;DHT22;15177;50.844;4.412;2023-10-08T01:41:21;17.50;99.90
27797;DHT22;15177;50.844;4.412;2023-10-08T01:43:56;17.50;99.90
27797;DHT22;15177;50.844;4.412;2023-10-08T01:46:25;17.50;99.90
27797;DHT22;15177;50.844;4.412;2023-10-08T01:48:52;17.50;99.90
27797;DHT22;15177;50.844;4.412;2023-10-08T01:51:34;17.40;99.90
27797;DHT22;15177;50.844;4.412;2023-10-08T01:54:04;17.40;99.90
27797;DHT22;15177;50.844;4.412;2023-10-08T01:56:40;17.40;99.90
27797;DHT22;15177;50.844;4.412;2023-10-08T01:59:13;17.50;99.90
27797;DHT22;15177;50.844;4.412;2023-10-08T02:01:42;17.40;99.90
27797;DHT22;15177;50.844;4.412;2023-10-08T02:04:09;17.40;99.90
27797;DHT22;15177;50.844;4.412;2023-10-08T02:06:37;17.30;99.90
27797;DHT22;15177;50.844;4.412;2023-10-08T02:09:05;17.20;99.90
27797;DHT22;15177;50.844;4.412;2023-10-08T02:11:46;17.30;99.90
27797;DHT22;15177;50.844;4.412;2023-10-08T02:14:19;17.30;99.90
27797;DHT22;15177;50.844;4.412;2023-10-08T02:16:51;17.30;99.90
27797;DHT22;15177;50.844;4.412;2023-10-08T02:19:22;17.20;99.90
27797;DHT22;15177;50.844;4.412;2023-10-08T02:21:56;17.20;99.90
27797;DHT22;15177;50.844;4.412;2023-10-08T02:24:24;17.20;99.90
27797;DHT22;15177;50.844;4.412;2023-10-08T02:26:54;17.30;99.90
27797;DHT22;15177;50.844;4.412;2023-10-08T02:29:26;17.20;99.90
27797;DHT22;15177;50.844;4.412;2023-10-08T02:31:52;17.20;99.90
27797;DHT22;15177;50.844;4.412;2023-10-08T02:34:19;17.20;99.90
27797;DHT22;15177;50.844;4.412;2023-10-08T02:36:45;17.20;99.90
27797;DHT22;15177;50.844;4.412;2023-10-08T02:39:13;17.10;99.90
27797;DHT22;15177;50.844;4.412;2023-10-08T02:41:52;17.10;99.90
27797;DHT22;15177;50.844;4.412;2023-10-08T02:44:18;17.10;99.90
27797;DHT22;15177;50.844;4.412;2023-10-08T02:46:47;17.00;99.90
27797;DHT22;15177;50.844;4.412;2023-10-08T02:49:14;17.10;99.90
27797;DHT22;15177;50.844;4.412;2023-10-08T02:51:51;17.10;99.90
27797;DHT22;15177;50.844;4.412;2023-10-08T02:54:18;17.10;99.90
27797;DHT22;15177;50.844;4.412;2023-10-08T02:56:45;17.00;99.90
27797;DHT22;15177;50.844;4.412;2023-10-08T02:59:12;17.00;99.90
27797;DHT22;15177;50.844;4.412;2023-10-08T03:01:39;17.00;99.90
27797;DHT22;15177;50.844;4.412;2023-10-08T03:04:09;17.00;99.90
27797;DHT22;15177;50.844;4.412;2023-10-08T03:06:46;17.00;99.90
27797;DHT22;15177;50.844;4.412;2023-10-08T03:09:19;17.00;99.90
27797;DHT22;15177;50.844;4.412;2023-10-08T03:11:57;17.10;99.90
27797;DHT22;15177;50.844;4.412;2023-10-08T03:14:24;17.00;99.90
27797;DHT22;15177;50.844;4.412;2023-10-08T03:16:54;17.00;99.90
27797;DHT22;15177;50.844;4.412;2023-10-08T03:19:30;17.10;99.90
27797;DHT22;15177;50.844;4.412;2023-10-08T03:21:58;17.20;99.90
27797;DHT22;15177;50.844;4.412;2023-10-08T03:24:29;17.30;99.90
27797;DHT22;15177;50.844;4.412;2023-10-08T03:26:58;17.20;99.90
27797;DHT22;15177;50.844;4.412;2023-10-08T03:29:53;17.10;99.90
27797;DHT22;15177;50.844;4.412;2023-10-08T03:32:21;17.20;99.90
27797;DHT22;15177;50.844;4.412;2023-10-08T03:34:52;17.10;99.90
27797;DHT22;15177;50.844;4.412;2023-10-08T03:37:22;17.10;99.90
27797;DHT22;15177;50.844;4.412;2023-10-08T03:39:55;17.20;99.90
27797;DHT22;15177;50.844;4.412;2023-10-08T03:42:29;17.20;99.90
27797;DHT22;15177;50.844;4.412;2023-10-08T03:45:06;17.20;99.90
27797;DHT22;15177;50.844;4.412;2023-10-08T03:47:39;17.20;99.90
27797;DHT22;15177;50.844;4.412;2023-10-08T03:50:07;17.10;99.90
27797;DHT22;15177;50.844;4.412;2023-10-08T03:52:35;17.10;99.90
27797;DHT22;15177;50.844;4.412;2023-10-08T03:55:06;17.20;99.90
27797;DHT22;15177;50.844;4.412;2023-10-08T03:57:44;17.20;99.90
27797;DHT22;15177;50.844;4.412;2023-10-08T04:00:13;17.20;99.90
27797;DHT22;15177;50.844;4.412;2023-10-08T04:02:47;17.20;99.90
27797;DHT22;15177;50.844;4.412;2023-10-08T04:05:29;17.20;99.90
27797;DHT22;15177;50.844;4.412;2023-10-08T04:08:09;17.10;99.90
27797;DHT22;15177;50.844;4.412;2023-10-08T04:10:59;17.00;99.90
27797;DHT22;15177;50.844;4.412;2023-10-08T04:13:44;16.90;99.90
27797;DHT22;15177;50.844;4.412;2023-10-08T04:16:10;16.90;99.90
27797;DHT22;15177;50.844;4.412;2023-10-08T04:18:36;17.00;99.90
27797;DHT22;15177;50.844;4.412;2023-10-08T04:21:06;16.90;99.90
27797;DHT22;15177;50.844;4.412;2023-10-08T04:23:39;16.90;99.90
27797;DHT22;15177;50.844;4.412;2023-10-08T04:26:05;16.90;99.90
27797;DHT22;15177;50.844;4.412;2023-10-08T04:28:32;16.90;99.90
27797;DHT22;15177;50.844;4.412;2023-10-08T04:31:00;16.80;99.90
27797;DHT22;15177;50.844;4.412;2023-10-08T04:33:43;16.80;99.90
27797;DHT22;15177;50.844;4.412;2023-10-08T04:36:10;16.70;99.90
27797;DHT22;15177;50.844;4.412;2023-10-08T04:38:43;16.70;99.90
27797;DHT22;15177;50.844;4.412;2023-10-08T04:41:12;16.70;99.90
27797;DHT22;15177;50.844;4.412;2023-10-08T04:43:39;16.70;99.90
27797;DHT22;15177;50.844;4.412;2023-10-08T04:46:08;16.80;99.90
27797;DHT22;15177;50.844;4.412;2023-10-08T04:48:45;16.70;99.90
27797;DHT22;15177;50.844;4.412;2023-10-08T04:51:12;16.70;99.90
27797;DHT22;15177;50.844;4.412;2023-10-08T04:53:38;16.80;99.90
27797;DHT22;15177;50.844;4.412;2023-10-08T04:56:10;16.70;99.90
27797;DHT22;15177;50.844;4.412;2023-10-08T04:58:49;16.60;99.90
27797;DHT22;15177;50.844;4.412;2023-10-08T05:01:18;16.70;99.90
27797;DHT22;15177;50.844;4.412;2023-10-08T05:03:55;16.70;99.90
27797;DHT22;15177;50.844;4.412;2023-10-08T05:06:29;16.60;99.90
27797;DHT22;15177;50.844;4.412;2023-10-08T05:11:52;16.60;99.90
27797;DHT22;15177;50.844;4.412;2023-10-08T05:14:22;16.60;99.90
27797;DHT22;15177;50.844;4.412;2023-10-08T05:17:04;16.60;99.90
27797;DHT22;15177;50.844;4.412;2023-10-08T05:19:41;16.70;99.90
27797;DHT22;15177;50.844;4.412;2023-10-08T05:22:11;16.70;99.90
27797;DHT22;15177;50.844;4.412;2023-10-08T05:24:56;16.70;99.90
27797;DHT22;15177;50.844;4.412;2023-10-08T05:27:45;16.80;99.90
27797;DHT22;15177;50.844;4.412;2023-10-08T05:30:19;16.60;99.90
27797;DHT22;15177;50.844;4.412;2023-10-08T05:32:57;16.50;99.90
27797;DHT22;15177;50.844;4.412;2023-10-08T05:35:30;16.60;99.90
27797;DHT22;15177;50.844;4.412;2023-10-08T05:37:58;16.60;99.90
27797;DHT22;15177;50.844;4.412;2023-10-08T05:40:40;16.60;99.90
27797;DHT22;15177;50.844;4.412;2023-10-08T05:43:34;16.70;99.90
27797;DHT22;15177;50.844;4.412;2023-10-08T05:46:03;16.60;99.90
27797;DHT22;15177;50.844;4.412;2023-10-08T05:49:04;16.60;99.90
27797;DHT22;15177;50.844;4.412;2023-10-08T05:51:38;16.50;99.90
27797;DHT22;15177;50.844;4.412;2023-10-08T05:54:26;16.50;99.90
27797;DHT22;15177;50.844;4.412;2023-10-08T05:56:59;16.50;99.90
27797;DHT22;15177;50.844;4.412;2023-10-08T05:59:39;16.50;99.90
27797;DHT22;15177;50.844;4.412;2023-10-08T06:02:29;16.50;99.90
27797;DHT22;15177;50.844;4.412;2023-10-08T06:05:06;16.60;99.90
27797;DHT22;15177;50.844;4.412;2023-10-08T06:07:47;16.60;99.90
27797;DHT22;15177;50.844;4.412;2023-10-08T06:10:35;16.60;99.90
27797;DHT22;15177;50.844;4.412;2023-10-08T06:13:11;16.60;99.90
27797;DHT22;15177;50.844;4.412;2023-10-08T06:16:09;16.70;99.90
27797;DHT22;15177;50.844;4.412;2023-10-08T06:18:38;16.70;99.90
27797;DHT22;15177;50.844;4.412;2023-10-08T06:21:06;16.80;99.90
27797;DHT22;15177;50.844;4.412;2023-10-08T06:23:33;16.90;99.90
27797;DHT22;15177;50.844;4.412;2023-10-08T06:26:03;16.90;99.90
27797;DHT22;15177;50.844;4.412;2023-10-08T06:28:35;17.00;99.90
27797;DHT22;15177;50.844;4.412;2023-10-08T06:31:01;17.00;99.90
27797;DHT22;15177;50.844;4.412;2023-10-08T06:33:34;17.10;99.90
27797;DHT22;15177;50.844;4.412;2023-10-08T06:36:00;17.10;99.90
27797;DHT22;15177;50.844;4.412;2023-10-08T06:38:40;17.20;99.90
27797;DHT22;15177;50.844;4.412;2023-10-08T06:41:08;17.30;99.90
27797;DHT22;15177;50.844;4.412;2023-10-08T06:43:42;17.40;99.90
27797;DHT22;15177;50.844;4.412;2023-10-08T06:46:17;17.50;99.90
27797;DHT22;15177;50.844;4.412;2023-10-08T06:48:46;17.60;99.90
27797;DHT22;15177;50.844;4.412;2023-10-08T06:51:16;17.80;99.90
27797;DHT22;15177;50.844;4.412;2023-10-08T06:53:48;18.00;99.90
27797;DHT22;15177;50.844;4.412;2023-10-08T06:56:17;18.20;99.90
27797;DHT22;15177;50.844;4.412;2023-10-08T06:58:46;18.40;99.90
27797;DHT22;15177;50.844;4.412;2023-10-08T07:01:21;18.80;99.90
27797;DHT22;15177;50.844;4.412;2023-10-08T07:03:48;19.20;99.90
27797;DHT22;15177;50.844;4.412;2023-10-08T07:06:18;19.50;99.90
27797;DHT22;15177;50.844;4.412;2023-10-08T07:09:00;19.80;99.90
27797;DHT22;15177;50.844;4.412;2023-10-08T07:11:50;20.20;99.90
27797;DHT22;15177;50.844;4.412;2023-10-08T07:14:21;20.80;99.90
27797;DHT22;15177;50.844;4.412;2023-10-08T07:16:48;21.30;99.90
27797;DHT22;15177;50.844;4.412;2023-10-08T07:19:18;21.80;99.90
27797;DHT22;15177;50.844;4.412;2023-10-08T07:21:47;22.20;99.90
27797;DHT22;15177;50.844;4.412;2023-10-08T07:24:13;22.70;99.90
27797;DHT22;15177;50.844;4.412;2023-10-08T07:26:44;23.10;99.90
27797;DHT22;15177;50.844;4.412;2023-10-08T07:29:14;23.50;99.90
27797;DHT22;15177;50.844;4.412;2023-10-08T07:31:44;23.80;99.90
27797;DHT22;15177;50.844;4.412;2023-10-08T07:34:19;23.50;99.90
27797;DHT22;15177;50.844;4.412;2023-10-08T07:36:52;23.20;99.90
27797;DHT22;15177;50.844;4.412;2023-10-08T07:39:20;22.80;99.90
27797;DHT22;15177;50.844;4.412;2023-10-08T07:42:05;22.60;99.90
27797;DHT22;15177;50.844;4.412;2023-10-08T07:44:31;22.90;99.90
27797;DHT22;15177;50.844;4.412;2023-10-08T07:46:57;23.30;99.90
27797;DHT22;15177;50.844;4.412;2023-10-08T07:49:24;23.70;99.90
27797;DHT22;15177;50.844;4.412;2023-10-08T07:51:51;24.10;99.90
27797;DHT22;15177;50.844;4.412;2023-10-08T07:54:24;24.40;99.90
27797;DHT22;15177;50.844;4.412;2023-10-08T07:56:51;24.70;99.90
27797;DHT22;15177;50.844;4.412;2023-10-08T07:59:17;24.90;99.90
27797;DHT22;15177;50.844;4.412;2023-10-08T08:01:43;25.20;99.90
27797;DHT22;15177;50.844;4.412;2023-10-08T08:04:12;25.20;99.90
27797;DHT22;15177;50.844;4.412;2023-10-08T08:06:58;25.40;99.90
27797;DHT22;15177;50.844;4.412;2023-10-08T08:09:26;25.60;99.90
27797;DHT22;15177;50.844;4.412;2023-10-08T08:11:54;25.90;99.50
27797;DHT22;15177;50.844;4.412;2023-10-08T08:14:22;26.10;98.70
27797;DHT22;15177;50.844;4.412;2023-10-08T08:16:50;26.20;98.20
27797;DHT22;15177;50.844;4.412;2023-10-08T08:19:17;26.10;98.00
27797;DHT22;15177;50.844;4.412;2023-10-08T08:21:46;26.10;98.10
27797;DHT22;15177;50.844;4.412;2023-10-08T08:24:12;26.10;97.80
27797;DHT22;15177;50.844;4.412;2023-10-08T08:26:38;26.00;97.80
27797;DHT22;15177;50.844;4.412;2023-10-08T08:29:27;26.00;98.20
27797;DHT22;15177;50.844;4.412;2023-10-08T08:31:55;26.40;97.70
27797;DHT22;15177;50.844;4.412;2023-10-08T08:34:23;26.60;96.90
27797;DHT22;15177;50.844;4.412;2023-10-08T08:36:50;26.90;96.20
27797;DHT22;15177;50.844;4.412;2023-10-08T08:39:16;27.20;95.70
27797;DHT22;15177;50.844;4.412;2023-10-08T08:42:00;27.50;94.90
27797;DHT22;15177;50.844;4.412;2023-10-08T08:44:31;27.80;94.30
27797;DHT22;15177;50.844;4.412;2023-10-08T08:46:59;28.00;93.40
27797;DHT22;15177;50.844;4.412;2023-10-08T08:49:33;27.90;93.40
27797;DHT22;15177;50.844;4.412;2023-10-08T08:52:03;28.00;93.50
27797;DHT22;15177;50.844;4.412;2023-10-08T08:54:29;28.00;93.20
27797;DHT22;15177;50.844;4.412;2023-10-08T08:56:59;27.80;93.40
27797;DHT22;15177;50.844;4.412;2023-10-08T08:59:28;27.80;93.70
27797;DHT22;15177;50.844;4.412;2023-10-08T09:01:57;27.80;93.80
27797;DHT22;15177;50.844;4.412;2023-10-08T09:04:30;27.70;94.00
27797;DHT22;15177;50.844;4.412;2023-10-08T09:06:57;27.70;94.00
27797;DHT22;15177;50.844;4.412;2023-10-08T09:09:34;28.10;93.80
27797;DHT22;15177;50.844;4.412;2023-10-08T09:12:03;28.40;93.50
27797;DHT22;15177;50.844;4.412;2023-10-08T09:14:31;28.80;92.70
27797;DHT22;15177;50.844;4.412;2023-10-08T09:17:04;28.90;92.30
27797;DHT22;15177;50.844;4.412;2023-10-08T09:19:38;28.80;92.00
27797;DHT22;15177;50.844;4.412;2023-10-08T09:22:08;28.70;92.20
27797;DHT22;15177;50.844;4.412;2023-10-08T09:24:37;28.50;92.50
27797;DHT22;15177;50.844;4.412;2023-10-08T09:27:10;28.30;92.90
27797;DHT22;15177;50.844;4.412;2023-10-08T09:29:40;28.00;93.50
27797;DHT22;15177;50.844;4.412;2023-10-08T09:32:08;27.80;93.90
27797;DHT22;15177;50.844;4.412;2023-10-08T09:34:34;27.60;94.50
27797;DHT22;15177;50.844;4.412;2023-10-08T09:37:01;27.30;94.90
27797;DHT22;15177;50.844;4.412;2023-10-08T09:39:30;26.90;96.00
27797;DHT22;15177;50.844;4.412;2023-10-08T09:42:00;26.90;95.90
27797;DHT22;15177;50.844;4.412;2023-10-08T09:44:28;27.10;96.20
27797;DHT22;15177;50.844;4.412;2023-10-08T09:47:08;27.20;96.10
27797;DHT22;15177;50.844;4.412;2023-10-08T09:49:39;27.10;96.10
27797;DHT22;15177;50.844;4.412;2023-10-08T09:52:08;27.50;96.10
27797;DHT22;15177;50.844;4.412;2023-10-08T09:55:08;27.50;96.10
27797;DHT22;15177;50.844;4.412;2023-10-08T09:57:36;27.70;96.10
27797;DHT22;15177;50.844;4.412;2023-10-08T10:00:05;28.20;95.60
27797;DHT22;15177;50.844;4.412;2023-10-08T10:02:36;28.70;94.60
27797;DHT22;15177;50.844;4.412;2023-10-08T10:05:02;29.00;94.10
27797;DHT22;15177;50.844;4.412;2023-10-08T10:07:29;29.30;93.40
27797;DHT22;15177;50.844;4.412;2023-10-08T10:09:55;29.40;93.30
27797;DHT22;15177;50.844;4.412;2023-10-08T10:12:27;29.80;92.70
27797;DHT22;15177;50.844;4.412;2023-10-08T10:14:54;30.10;91.70
27797;DHT22;15177;50.844;4.412;2023-10-08T10:17:25;30.00;91.50
27797;DHT22;15177;50.844;4.412;2023-10-08T10:20:00;30.00;91.60
27797;DHT22;15177;50.844;4.412;2023-10-08T10:22:34;29.90;91.40
27797;DHT22;15177;50.844;4.412;2023-10-08T10:25:01;29.90;91.60
27797;DHT22;15177;50.844;4.412;2023-10-08T10:30:21;30.10;91.50
27797;DHT22;15177;50.844;4.412;2023-10-08T10:32:54;30.10;91.20
27797;DHT22;15177;50.844;4.412;2023-10-08T10:35:20;30.20;91.10
27797;DHT22;15177;50.844;4.412;2023-10-08T10:37:51;30.40;90.90
27797;DHT22;15177;50.844;4.412;2023-10-08T10:40:24;30.20;90.80
27797;DHT22;15177;50.844;4.412;2023-10-08T10:43:08;29.90;91.20
27797;DHT22;15177;50.844;4.412;2023-10-08T10:45:43;29.30;91.90
27797;DHT22;15177;50.844;4.412;2023-10-08T10:48:13;28.80;92.90
27797;DHT22;15177;50.844;4.412;2023-10-08T10:50:49;28.40;93.70
27797;DHT22;15177;50.844;4.412;2023-10-08T10:53:36;27.80;95.10
27797;DHT22;15177;50.844;4.412;2023-10-08T10:56:26;27.60;95.80
27797;DHT22;15177;50.844;4.412;2023-10-08T10:59:02;27.40;96.60
27797;DHT22;15177;50.844;4.412;2023-10-08T11:01:45;27.00;97.30
27797;DHT22;15177;50.844;4.412;2023-10-08T11:04:12;26.90;97.70
27797;DHT22;15177;50.844;4.412;2023-10-08T11:06:43;26.60;98.30
27797;DHT22;15177;50.844;4.412;2023-10-08T11:09:10;26.40;99.30
27797;DHT22;15177;50.844;4.412;2023-10-08T11:11:40;26.20;99.90
27797;DHT22;15177;50.844;4.412;2023-10-08T11:14:11;26.10;99.90
27797;DHT22;15177;50.844;4.412;2023-10-08T11:16:42;26.00;99.90
27797;DHT22;15177;50.844;4.412;2023-10-08T11:19:11;26.00;99.90
27797;DHT22;15177;50.844;4.412;2023-10-08T11:21:50;25.80;99.90
27797;DHT22;15177;50.844;4.412;2023-10-08T11:24:28;25.60;99.90
27797;DHT22;15177;50.844;4.412;2023-10-08T11:26:54;25.60;99.90
27797;DHT22;15177;50.844;4.412;2023-10-08T11:29:32;25.50;99.90
27797;DHT22;15177;50.844;4.412;2023-10-08T11:32:00;25.60;99.90
27797;DHT22;15177;50.844;4.412;2023-10-08T11:34:31;25.50;99.90
27797;DHT22;15177;50.844;4.412;2023-10-08T11:37:02;25.50;99.90
27797;DHT22;15177;50.844;4.412;2023-10-08T11:39:39;25.40;99.90
27797;DHT22;15177;50.844;4.412;2023-10-08T11:42:11;25.30;99.90
27797;DHT22;15177;50.844;4.412;2023-10-08T11:44:55;25.20;99.90
27797;DHT22;15177;50.844;4.412;2023-10-08T11:47:25;25.10;99.90
27797;DHT22;15177;50.844;4.412;2023-10-08T11:49:56;25.10;99.90
27797;DHT22;15177;50.844;4.412;2023-10-08T11:52:43;24.90;99.90
27797;DHT22;15177;50.844;4.412;2023-10-08T11:55:09;24.80;99.90
27797;DHT22;15177;50.844;4.412;2023-10-08T11:57:46;24.80;99.90
27797;DHT22;15177;50.844;4.412;2023-10-08T12:00:15;24.80;99.90
27797;DHT22;15177;50.844;4.412;2023-10-08T12:02:53;24.70;99.90
27797;DHT22;15177;50.844;4.412;2023-10-08T12:05:22;24.70;99.90
27797;DHT22;15177;50.844;4.412;2023-10-08T12:07:52;24.70;99.90
27797;DHT22;15177;50.844;4.412;2023-10-08T12:10:23;24.70;99.90
27797;DHT22;15177;50.844;4.412;2023-10-08T12:12:53;24.70;99.90
27797;DHT22;15177;50.844;4.412;2023-10-08T12:15:22;24.70;99.90
27797;DHT22;15177;50.844;4.412;2023-10-08T12:17:52;24.80;99.90
27797;DHT22;15177;50.844;4.412;2023-10-08T12:20:37;24.90;99.90
27797;DHT22;15177;50.844;4.412;2023-10-08T12:23:05;24.90;99.90
27797;DHT22;15177;50.844;4.412;2023-10-08T12:25:32;24.90;99.90
27797;DHT22;15177;50.844;4.412;2023-10-08T12:27:59;24.80;99.90
27797;DHT22;15177;50.844;4.412;2023-10-08T12:30:32;24.80;99.90
27797;DHT22;15177;50.844;4.412;2023-10-08T12:33:07;24.80;99.90
27797;DHT22;15177;50.844;4.412;2023-10-08T12:35:33;24.70;99.90
27797;DHT22;15177;50.844;4.412;2023-10-08T12:37:59;24.90;99.90
27797;DHT22;15177;50.844;4.412;2023-10-08T12:40:24;24.90;99.90
27797;DHT22;15177;50.844;4.412;2023-10-08T12:42:53;24.90;99.90
27797;DHT22;15177;50.844;4.412;2023-10-08T12:45:20;24.90;99.90
27797;DHT22;15177;50.844;4.412;2023-10-08T12:47:49;25.00;99.90
27797;DHT22;15177;50.844;4.412;2023-10-08T12:50:20;25.00;99.90
27797;DHT22;15177;50.844;4.412;2023-10-08T12:53:09;25.10;99.90
27797;DHT22;15177;50.844;4.412;2023-10-08T12:55:40;24.90;99.90
27797;DHT22;15177;50.844;4.412;2023-10-08T12:58:10;25.00;99.90
27797;DHT22;15177;50.844;4.412;2023-10-08T13:00:38;25.00;99.90
27797;DHT22;15177;50.844;4.412;2023-10-08T13:03:06;24.90;99.90
27797;DHT22;15177;50.844;4.412;2023-10-08T13:05:41;24.90;99.90
27797;DHT22;15177;50.844;4.412;2023-10-08T13:08:10;25.00;99.90
27797;DHT22;15177;50.844;4.412;2023-10-08T13:10:42;24.90;99.90
27797;DHT22;15177;50.844;4.412;2023-10-08T13:13:10;25.00;99.90
27797;DHT22;15177;50.844;4.412;2023-10-08T13:15:39;25.10;99.90
27797;DHT22;15177;50.844;4.412;2023-10-08T13:18:07;25.20;99.90
27797;DHT22;15177;50.844;4.412;2023-10-08T13:20:33;25.20;99.90
27797;DHT22;15177;50.844;4.412;2023-10-08T13:23:03;25.30;99.90
27797;DHT22;15177;50.844;4.412;2023-10-08T13:25:32;25.20;99.90
27797;DHT22;15177;50.844;4.412;2023-10-08T13:28:01;25.20;99.90
27797;DHT22;15177;50.844;4.412;2023-10-08T13:30:28;25.10;99.90
27797;DHT22;15177;50.844;4.412;2023-10-08T13:32:53;25.10;99.90
27797;DHT22;15177;50.844;4.412;2023-10-08T13:35:19;25.00;99.90
27797;DHT22;15177;50.844;4.412;2023-10-08T13:37:45;24.80;99.90
27797;DHT22;15177;50.844;4.412;2023-10-08T13:40:14;24.60;99.90
27797;DHT22;15177;50.844;4.412;2023-10-08T13:42:44;24.60;99.90
27797;DHT22;15177;50.844;4.412;2023-10-08T13:45:10;24.50;99.90
27797;DHT22;15177;50.844;4.412;2023-10-08T13:47:42;24.50;99.90
27797;DHT22;15177;50.844;4.412;2023-10-08T13:50:08;24.30;99.90
27797;DHT22;15177;50.844;4.412;2023-10-08T13:52:36;24.30;99.90
27797;DHT22;15177;50.844;4.412;2023-10-08T13:55:06;24.50;99.90
27797;DHT22;15177;50.844;4.412;2023-10-08T13:57:33;24.50;99.90
27797;DHT22;15177;50.844;4.412;2023-10-08T13:59:58;24.50;99.90
27797;DHT22;15177;50.844;4.412;2023-10-08T14:02:25;24.50;99.90
27797;DHT22;15177;50.844;4.412;2023-10-08T14:04:51;24.50;99.90
27797;DHT22;15177;50.844;4.412;2023-10-08T14:07:18;24.40;99.90
27797;DHT22;15177;50.844;4.412;2023-10-08T14:09:45;24.30;99.90
27797;DHT22;15177;50.844;4.412;2023-10-08T14:12:14;24.40;99.90
27797;DHT22;15177;50.844;4.412;2023-10-08T14:14:42;24.30;99.90
27797;DHT22;15177;50.844;4.412;2023-10-08T14:17:13;24.40;99.90
27797;DHT22;15177;50.844;4.412;2023-10-08T14:20:02;24.30;99.90
27797;DHT22;15177;50.844;4.412;2023-10-08T14:22:38;24.50;99.90
27797;DHT22;15177;50.844;4.412;2023-10-08T14:25:04;24.50;99.90
27797;DHT22;15177;50.844;4.412;2023-10-08T14:27:37;24.50;99.90
27797;DHT22;15177;50.844;4.412;2023-10-08T14:30:09;24.50;99.90
27797;DHT22;15177;50.844;4.412;2023-10-08T14:32:43;24.40;99.90
27797;DHT22;15177;50.844;4.412;2023-10-08T14:35:15;24.50;99.90
27797;DHT22;15177;50.844;4.412;2023-10-08T14:38:00;24.50;99.90
27797;DHT22;15177;50.844;4.412;2023-10-08T14:40:46;24.60;99.90
27797;DHT22;15177;50.844;4.412;2023-10-08T14:43:47;24.60;99.90
27797;DHT22;15177;50.844;4.412;2023-10-08T14:46:14;24.70;99.90
27797;DHT22;15177;50.844;4.412;2023-10-08T14:48:40;24.60;99.90
27797;DHT22;15177;50.844;4.412;2023-10-08T14:51:06;24.60;99.90
27797;DHT22;15177;50.844;4.412;2023-10-08T14:53:41;24.70;99.90
27797;DHT22;15177;50.844;4.412;2023-10-08T14:56:08;24.60;99.90
27797;DHT22;15177;50.844;4.412;2023-10-08T14:58:34;24.70;99.90
27797;DHT22;15177;50.844;4.412;2023-10-08T15:01:00;24.80;99.90
27797;DHT22;15177;50.844;4.412;2023-10-08T15:03:26;24.70;99.90
27797;DHT22;15177;50.844;4.412;2023-10-08T15:05:52;24.70;99.90
27797;DHT22;15177;50.844;4.412;2023-10-08T15:08:18;24.70;99.90
27797;DHT22;15177;50.844;4.412;2023-10-08T15:10:44;24.70;99.90
27797;DHT22;15177;50.844;4.412;2023-10-08T15:13:12;24.60;99.90
27797;DHT22;15177;50.844;4.412;2023-10-08T15:15:38;24.40;99.90
27797;DHT22;15177;50.844;4.412;2023-10-08T15:18:06;24.20;99.90
27797;DHT22;15177;50.844;4.412;2023-10-08T15:20:32;24.20;99.90
27797;DHT22;15177;50.844;4.412;2023-10-08T15:22:59;24.10;99.90
27797;DHT22;15177;50.844;4.412;2023-10-08T15:25:25;24.10;99.90
27797;DHT22;15177;50.844;4.412;2023-10-08T15:27:51;24.20;99.90
27797;DHT22;15177;50.844;4.412;2023-10-08T15:30:18;24.20;99.90
27797;DHT22;15177;50.844;4.412;2023-10-08T15:32:46;24.10;99.90
27797;DHT22;15177;50.844;4.412;2023-10-08T15:35:17;24.00;99.90
27797;DHT22;15177;50.844;4.412;2023-10-08T15:37:48;23.90;99.90
27797;DHT22;15177;50.844;4.412;2023-10-08T15:40:15;24.00;99.90
27797;DHT22;15177;50.844;4.412;2023-10-08T15:42:49;23.80;99.90
27797;DHT22;15177;50.844;4.412;2023-10-08T15:45:18;23.90;99.90
27797;DHT22;15177;50.844;4.412;2023-10-08T15:47:44;24.00;99.90
27797;DHT22;15177;50.844;4.412;2023-10-08T15:50:09;23.90;99.90
27797;DHT22;15177;50.844;4.412;2023-10-08T15:52:36;24.00;99.90
27797;DHT22;15177;50.844;4.412;2023-10-08T15:55:05;23.90;99.90
27797;DHT22;15177;50.844;4.412;2023-10-08T15:57:31;23.80;99.90
27797;DHT22;15177;50.844;4.412;2023-10-08T15:59:57;23.80;99.90
27797;DHT22;15177;50.844;4.412;2023-10-08T16:02:23;23.80;99.90